sensor_id;sensor_type;location;lat;lon;timestamp;P1;P2;P0
32503;PMS5003;18953;45.930;13.640;2023-04-24T00:00:48;19;18;
32503;PMS5003;18953;45.930;13.640;2023-04-24T00:06:04;18;17;
32503;PMS5003;18953;45.930;13.640;2023-04-24T00:11:20;19;18;
32503;PMS5003;18953;45.930;13.640;2023-04-24T00:16:37;18;17;
32503;PMS5003;18953;45.930;13.640;2023-04-24T00:21:53;19;18;
32503;PMS5003;18953;45.930;13.640;2023-04-24T00:27:09;18;16;
32503;PMS5003;18953;45.930;13.640;2023-04-24T00:32:26;20;19;
32503;PMS5003;18953;45.930;13.640;2023-04-24T00:37:42;23;18;
32503;PMS5003;18953;45.930;13.640;2023-04-24T00:42:59;17;16;
32503;PMS5003;18953;45.930;13.640;2023-04-24T00:48:15;15;14;
32503;PMS5003;18953;45.930;13.640;2023-04-24T00:53:31;17;14;
32503;PMS5003;18953;45.930;13.640;2023-04-24T00:58:48;14;13;
32503;PMS5003;18953;45.930;13.640;2023-04-24T01:04:04;13;13;
32503;PMS5003;18953;45.930;13.640;2023-04-24T01:09:21;17;16;
32503;PMS5003;18953;45.930;13.640;2023-04-24T01:14:37;16;16;
32503;PMS5003;18953;45.930;13.640;2023-04-24T01:19:53;17;17;
32503;PMS5003;18953;45.930;13.640;2023-04-24T01:25:10;18;16;
32503;PMS5003;18953;45.930;13.640;2023-04-24T01:30:27;16;14;
32503;PMS5003;18953;45.930;13.640;2023-04-24T01:35:43;16;14;
32503;PMS5003;18953;45.930;13.640;2023-04-24T01:41:00;14;14;
32503;PMS5003;18953;45.930;13.640;2023-04-24T01:46:16;15;14;
32503;PMS5003;18953;45.930;13.640;2023-04-24T01:51:32;14;13;
32503;PMS5003;18953;45.930;13.640;2023-04-24T01:56:49;17;15;
32503;PMS5003;18953;45.930;13.640;2023-04-24T02:02:05;13;12;
32503;PMS5003;18953;45.930;13.640;2023-04-24T02:07:21;13;13;
32503;PMS5003;18953;45.930;13.640;2023-04-24T02:12:38;16;14;
32503;PMS5003;18953;45.930;13.640;2023-04-24T02:17:54;15;13;
32503;PMS5003;18953;45.930;13.640;2023-04-24T02:23:10;14;14;
32503;PMS5003;18953;45.930;13.640;2023-04-24T02:28:27;14;13;
32503;PMS5003;18953;45.930;13.640;2023-04-24T02:33:43;13;12;
32503;PMS5003;18953;45.930;13.640;2023-04-24T02:39:00;14;13;
32503;PMS5003;18953;45.930;13.640;2023-04-24T02:44:16;13;12;
32503;PMS5003;18953;45.930;13.640;2023-04-24T02:50:45;14;12;
32503;PMS5003;18953;45.930;13.640;2023-04-24T02:56:01;12;12;
32503;PMS5003;18953;45.930;13.640;2023-04-24T03:01:18;12;11;
32503;PMS5003;18953;45.930;13.640;2023-04-24T03:06:34;16;13;
32503;PMS5003;18953;45.930;13.640;2023-04-24T03:11:50;11;10;
32503;PMS5003;18953;45.930;13.640;2023-04-24T03:17:07;12;12;
32503;PMS5003;18953;45.930;13.640;2023-04-24T03:22:24;11;9;
32503;PMS5003;18953;45.930;13.640;2023-04-24T03:27:40;12;12;
32503;PMS5003;18953;45.930;13.640;2023-04-24T03:32:56;11;10;
32503;PMS5003;18953;45.930;13.640;2023-04-24T03:38:12;12;10;
32503;PMS5003;18953;45.930;13.640;2023-04-24T03:43:29;11;10;
32503;PMS5003;18953;45.930;13.640;2023-04-24T03:48:45;9;8;
32503;PMS5003;18953;45.930;13.640;2023-04-24T03:54:01;10;10;
32503;PMS5003;18953;45.930;13.640;2023-04-24T03:59:18;19;15;
32503;PMS5003;18953;45.930;13.640;2023-04-24T04:04:34;12;11;
32503;PMS5003;18953;45.930;13.640;2023-04-24T04:09:50;15;12;
32503;PMS5003;18953;45.930;13.640;2023-04-24T04:15:07;14;12;
32503;PMS5003;18953;45.930;13.640;2023-04-24T04:20:23;15;13;
32503;PMS5003;18953;45.930;13.640;2023-04-24T04:25:40;13;13;
32503;PMS5003;18953;45.930;13.640;2023-04-24T04:30:56;15;15;
32503;PMS5003;18953;45.930;13.640;2023-04-24T04:36:12;13;12;
32503;PMS5003;18953;45.930;13.640;2023-04-24T04:41:29;13;12;
32503;PMS5003;18953;45.930;13.640;2023-04-24T04:46:46;14;13;
32503;PMS5003;18953;45.930;13.640;2023-04-24T04:52:02;18;17;
32503;PMS5003;18953;45.930;13.640;2023-04-24T04:57:18;12;11;
32503;PMS5003;18953;45.930;13.640;2023-04-24T05:02:35;14;13;
32503;PMS5003;18953;45.930;13.640;2023-04-24T05:07:51;14;12;
32503;PMS5003;18953;45.930;13.640;2023-04-24T05:13:08;18;15;
32503;PMS5003;18953;45.930;13.640;2023-04-24T05:18:24;15;14;
32503;PMS5003;18953;45.930;13.640;2023-04-24T05:23:40;20;16;
32503;PMS5003;18953;45.930;13.640;2023-04-24T05:28:57;14;14;
32503;PMS5003;18953;45.930;13.640;2023-04-24T05:34:13;13;12;
32503;PMS5003;18953;45.930;13.640;2023-04-24T05:39:29;17;15;
32503;PMS5003;18953;45.930;13.640;2023-04-24T05:44:46;13;12;
32503;PMS5003;18953;45.930;13.640;2023-04-24T05:50:02;12;12;
32503;PMS5003;18953;45.930;13.640;2023-04-24T05:55:18;22;20;
32503;PMS5003;18953;45.930;13.640;2023-04-24T06:00:35;14;12;
32503;PMS5003;18953;45.930;13.640;2023-04-24T06:05:51;13;12;
32503;PMS5003;18953;45.930;13.640;2023-04-24T06:11:07;16;12;
32503;PMS5003;18953;45.930;13.640;2023-04-24T06:16:24;15;14;
32503;PMS5003;18953;45.930;13.640;2023-04-24T06:21:40;15;13;
32503;PMS5003;18953;45.930;13.640;2023-04-24T06:26:56;14;12;
32503;PMS5003;18953;45.930;13.640;2023-04-24T06:32:13;16;13;
32503;PMS5003;18953;45.930;13.640;2023-04-24T06:37:29;16;13;
32503;PMS5003;18953;45.930;13.640;2023-04-24T06:42:45;17;14;
32503;PMS5003;18953;45.930;13.640;2023-04-24T06:48:02;17;16;
32503;PMS5003;18953;45.930;13.640;2023-04-24T06:53:18;15;14;
32503;PMS5003;18953;45.930;13.640;2023-04-24T06:58:35;17;16;
32503;PMS5003;18953;45.930;13.640;2023-04-24T07:03:51;15;15;
32503;PMS5003;18953;45.930;13.640;2023-04-24T07:09:07;17;16;
32503;PMS5003;18953;45.930;13.640;2023-04-24T07:14:24;16;14;
32503;PMS5003;18953;45.930;13.640;2023-04-24T07:19:40;20;19;
32503;PMS5003;18953;45.930;13.640;2023-04-24T07:24:57;18;15;
32503;PMS5003;18953;45.930;13.640;2023-04-24T07:30:13;16;14;
32503;PMS5003;18953;45.930;13.640;2023-04-24T07:35:30;18;16;
32503;PMS5003;18953;45.930;13.640;2023-04-24T07:40:46;15;13;
32503;PMS5003;18953;45.930;13.640;2023-04-24T07:46:02;15;14;
32503;PMS5003;18953;45.930;13.640;2023-04-24T07:51:19;18;15;
32503;PMS5003;18953;45.930;13.640;2023-04-24T07:56:35;23;20;
32503;PMS5003;18953;45.930;13.640;2023-04-24T08:01:51;23;21;
32503;PMS5003;18953;45.930;13.640;2023-04-24T08:07:08;14;13;
32503;PMS5003;18953;45.930;13.640;2023-04-24T08:12:24;14;13;
32503;PMS5003;18953;45.930;13.640;2023-04-24T08:17:41;17;15;
32503;PMS5003;18953;45.930;13.640;2023-04-24T08:22:57;16;16;
32503;PMS5003;18953;45.930;13.640;2023-04-24T08:28:13;17;15;
32503;PMS5003;18953;45.930;13.640;2023-04-24T08:33:30;19;18;
32503;PMS5003;18953;45.930;13.640;2023-04-24T08:38:46;19;17;
32503;PMS5003;18953;45.930;13.640;2023-04-24T08:44:02;14;13;
32503;PMS5003;18953;45.930;13.640;2023-04-24T08:49:19;18;16;
32503;PMS5003;18953;45.930;13.640;2023-04-24T08:54:35;14;14;
32503;PMS5003;18953;45.930;13.640;2023-04-24T08:59:52;12;11;
32503;PMS5003;18953;45.930;13.640;2023-04-24T09:05:08;14;14;
32503;PMS5003;18953;45.930;13.640;2023-04-24T09:10:25;18;16;
32503;PMS5003;18953;45.930;13.640;2023-04-24T09:15:41;18;16;
32503;PMS5003;18953;45.930;13.640;2023-04-24T09:20:57;23;21;
32503;PMS5003;18953;45.930;13.640;2023-04-24T09:26:13;17;17;
32503;PMS5003;18953;45.930;13.640;2023-04-24T09:31:30;17;14;
32503;PMS5003;18953;45.930;13.640;2023-04-24T09:36:46;13;11;
32503;PMS5003;18953;45.930;13.640;2023-04-24T09:42:03;15;14;
32503;PMS5003;18953;45.930;13.640;2023-04-24T09:47:19;14;12;
32503;PMS5003;18953;45.930;13.640;2023-04-24T09:52:35;18;16;
32503;PMS5003;18953;45.930;13.640;2023-04-24T09:57:52;16;13;
32503;PMS5003;18953;45.930;13.640;2023-04-24T10:03:08;15;14;
32503;PMS5003;18953;45.930;13.640;2023-04-24T10:08:25;14;13;
32503;PMS5003;18953;45.930;13.640;2023-04-24T10:13:41;14;12;
32503;PMS5003;18953;45.930;13.640;2023-04-24T10:18:58;14;13;
32503;PMS5003;18953;45.930;13.640;2023-04-24T10:24:14;14;14;
32503;PMS5003;18953;45.930;13.640;2023-04-24T10:29:30;13;10;
32503;PMS5003;18953;45.930;13.640;2023-04-24T10:34:47;16;15;
32503;PMS5003;18953;45.930;13.640;2023-04-24T10:40:03;20;19;
32503;PMS5003;18953;45.930;13.640;2023-04-24T10:45:21;15;14;
32503;PMS5003;18953;45.930;13.640;2023-04-24T10:50:44;18;17;
32503;PMS5003;18953;45.930;13.640;2023-04-24T10:55:57;14;14;
32503;PMS5003;18953;45.930;13.640;2023-04-24T11:01:09;18;16;
32503;PMS5003;18953;45.930;13.640;2023-04-24T11:06:28;17;16;
32503;PMS5003;18953;45.930;13.640;2023-04-24T11:11:44;23;19;
32503;PMS5003;18953;45.930;13.640;2023-04-24T11:16:59;17;15;
32503;PMS5003;18953;45.930;13.640;2023-04-24T11:22:15;18;16;
32503;PMS5003;18953;45.930;13.640;2023-04-24T11:27:34;13;12;
32503;PMS5003;18953;45.930;13.640;2023-04-24T11:32:48;22;18;
32503;PMS5003;18953;45.930;13.640;2023-04-24T11:38:04;17;16;
32503;PMS5003;18953;45.930;13.640;2023-04-24T11:43:21;15;13;
32503;PMS5003;18953;45.930;13.640;2023-04-24T11:48:37;17;17;
32503;PMS5003;18953;45.930;13.640;2023-04-24T11:53:54;4;4;
32503;PMS5003;18953;45.930;13.640;2023-04-24T11:59:10;7;6;
32503;PMS5003;18953;45.930;13.640;2023-04-24T12:04:26;5;5;
32503;PMS5003;18953;45.930;13.640;2023-04-24T12:09:43;4;4;
32503;PMS5003;18953;45.930;13.640;2023-04-24T12:14:59;4;4;
32503;PMS5003;18953;45.930;13.640;2023-04-24T12:20:15;4;4;
32503;PMS5003;18953;45.930;13.640;2023-04-24T12:25:32;1;1;
32503;PMS5003;18953;45.930;13.640;2023-04-24T12:30:48;1;1;
32503;PMS5003;18953;45.930;13.640;2023-04-24T12:36:04;1;1;
32503;PMS5003;18953;45.930;13.640;2023-04-24T12:41:21;1;1;
32503;PMS5003;18953;45.930;13.640;2023-04-24T12:46:37;2;2;
32503;PMS5003;18953;45.930;13.640;2023-04-24T12:51:53;2;2;
32503;PMS5003;18953;45.930;13.640;2023-04-24T12:57:10;4;4;
32503;PMS5003;18953;45.930;13.640;2023-04-24T13:02:27;6;5;
32503;PMS5003;18953;45.930;13.640;2023-04-24T13:07:43;9;9;
32503;PMS5003;18953;45.930;13.640;2023-04-24T13:12:59;7;6;
32503;PMS5003;18953;45.930;13.640;2023-04-24T13:18:16;14;12;
32503;PMS5003;18953;45.930;13.640;2023-04-24T13:23:32;13;13;
32503;PMS5003;18953;45.930;13.640;2023-04-24T13:28:49;1;1;
32503;PMS5003;18953;45.930;13.640;2023-04-24T13:34:06;3;3;
32503;PMS5003;18953;45.930;13.640;2023-04-24T13:39:22;6;6;
32503;PMS5003;18953;45.930;13.640;2023-04-24T13:44:39;11;10;
32503;PMS5003;18953;45.930;13.640;2023-04-24T13:49:55;8;6;
32503;PMS5003;18953;45.930;13.640;2023-04-24T13:55:11;16;14;
32503;PMS5003;18953;45.930;13.640;2023-04-24T14:00:27;8;8;
32503;PMS5003;18953;45.930;13.640;2023-04-24T14:05:44;12;11;
32503;PMS5003;18953;45.930;13.640;2023-04-24T14:11:00;11;9;
32503;PMS5003;18953;45.930;13.640;2023-04-24T14:16:17;9;9;
32503;PMS5003;18953;45.930;13.640;2023-04-24T14:21:33;12;10;
32503;PMS5003;18953;45.930;13.640;2023-04-24T14:26:49;9;9;
32503;PMS5003;18953;45.930;13.640;2023-04-24T14:32:06;13;11;
32503;PMS5003;18953;45.930;13.640;2023-04-24T14:37:22;3;3;
32503;PMS5003;18953;45.930;13.640;2023-04-24T14:42:38;3;3;
32503;PMS5003;18953;45.930;13.640;2023-04-24T14:47:55;4;4;
32503;PMS5003;18953;45.930;13.640;2023-04-24T14:53:11;4;4;
32503;PMS5003;18953;45.930;13.640;2023-04-24T14:58:28;6;6;
32503;PMS5003;18953;45.930;13.640;2023-04-24T15:03:44;12;12;
32503;PMS5003;18953;45.930;13.640;2023-04-24T15:09:00;10;10;
32503;PMS5003;18953;45.930;13.640;2023-04-24T15:14:17;10;10;
32503;PMS5003;18953;45.930;13.640;2023-04-24T15:19:33;34;28;
32503;PMS5003;18953;45.930;13.640;2023-04-24T15:24:49;9;8;
32503;PMS5003;18953;45.930;13.640;2023-04-24T15:30:06;5;5;
32503;PMS5003;18953;45.930;13.640;2023-04-24T15:35:22;6;5;
32503;PMS5003;18953;45.930;13.640;2023-04-24T15:40:39;5;4;
32503;PMS5003;18953;45.930;13.640;2023-04-24T15:45:55;8;7;
32503;PMS5003;18953;45.930;13.640;2023-04-24T15:51:11;6;6;
32503;PMS5003;18953;45.930;13.640;2023-04-24T15:56:28;8;8;
32503;PMS5003;18953;45.930;13.640;2023-04-24T16:01:44;6;5;
32503;PMS5003;18953;45.930;13.640;2023-04-24T16:07:00;5;5;
32503;PMS5003;18953;45.930;13.640;2023-04-24T16:12:17;5;4;
32503;PMS5003;18953;45.930;13.640;2023-04-24T16:17:33;5;5;
32503;PMS5003;18953;45.930;13.640;2023-04-24T16:22:49;4;4;
32503;PMS5003;18953;45.930;13.640;2023-04-24T16:28:06;9;6;
32503;PMS5003;18953;45.930;13.640;2023-04-24T16:33:22;10;6;
32503;PMS5003;18953;45.930;13.640;2023-04-24T16:38:38;6;5;
32503;PMS5003;18953;45.930;13.640;2023-04-24T16:43:55;6;6;
32503;PMS5003;18953;45.930;13.640;2023-04-24T16:49:11;23;21;
32503;PMS5003;18953;45.930;13.640;2023-04-24T16:54:28;13;13;
32503;PMS5003;18953;45.930;13.640;2023-04-24T16:59:44;11;10;
32503;PMS5003;18953;45.930;13.640;2023-04-24T17:05:00;7;6;
32503;PMS5003;18953;45.930;13.640;2023-04-24T17:10:17;10;9;
32503;PMS5003;18953;45.930;13.640;2023-04-24T17:15:33;10;9;
32503;PMS5003;18953;45.930;13.640;2023-04-24T17:20:50;10;9;
32503;PMS5003;18953;45.930;13.640;2023-04-24T17:26:06;10;9;
32503;PMS5003;18953;45.930;13.640;2023-04-24T17:31:22;8;8;
32503;PMS5003;18953;45.930;13.640;2023-04-24T17:36:39;7;7;
32503;PMS5003;18953;45.930;13.640;2023-04-24T17:41:55;15;14;
32503;PMS5003;18953;45.930;13.640;2023-04-24T17:47:11;9;8;
32503;PMS5003;18953;45.930;13.640;2023-04-24T17:52:28;7;7;
32503;PMS5003;18953;45.930;13.640;2023-04-24T17:57:44;4;3;
32503;PMS5003;18953;45.930;13.640;2023-04-24T18:03:01;4;3;
32503;PMS5003;18953;45.930;13.640;2023-04-24T18:08:17;4;4;
32503;PMS5003;18953;45.930;13.640;2023-04-24T18:13:33;7;7;
32503;PMS5003;18953;45.930;13.640;2023-04-24T18:18:50;3;3;
32503;PMS5003;18953;45.930;13.640;2023-04-24T18:24:06;5;4;
32503;PMS5003;18953;45.930;13.640;2023-04-24T18:29:22;6;5;
32503;PMS5003;18953;45.930;13.640;2023-04-24T18:34:39;2;2;
32503;PMS5003;18953;45.930;13.640;2023-04-24T18:39:55;3;3;
32503;PMS5003;18953;45.930;13.640;2023-04-24T18:45:12;3;3;
32503;PMS5003;18953;45.930;13.640;2023-04-24T18:50:28;5;5;
32503;PMS5003;18953;45.930;13.640;2023-04-24T18:55:44;7;7;
32503;PMS5003;18953;45.930;13.640;2023-04-24T19:01:01;10;10;
32503;PMS5003;18953;45.930;13.640;2023-04-24T19:06:17;8;8;
32503;PMS5003;18953;45.930;13.640;2023-04-24T19:11:34;5;5;
32503;PMS5003;18953;45.930;13.640;2023-04-24T19:16:50;9;8;
32503;PMS5003;18953;45.930;13.640;2023-04-24T19:22:06;14;12;
32503;PMS5003;18953;45.930;13.640;2023-04-24T19:27:23;10;10;
32503;PMS5003;18953;45.930;13.640;2023-04-24T19:32:39;8;8;
32503;PMS5003;18953;45.930;13.640;2023-04-24T19:37:55;9;9;
32503;PMS5003;18953;45.930;13.640;2023-04-24T19:43:12;11;9;
32503;PMS5003;18953;45.930;13.640;2023-04-24T19:48:28;11;10;
32503;PMS5003;18953;45.930;13.640;2023-04-24T19:53:44;15;13;
32503;PMS5003;18953;45.930;13.640;2023-04-24T19:59:01;10;9;
32503;PMS5003;18953;45.930;13.640;2023-04-24T20:04:17;11;10;
32503;PMS5003;18953;45.930;13.640;2023-04-24T20:09:34;12;12;
32503;PMS5003;18953;45.930;13.640;2023-04-24T20:14:50;19;16;
32503;PMS5003;18953;45.930;13.640;2023-04-24T20:20:07;18;14;
32503;PMS5003;18953;45.930;13.640;2023-04-24T20:25:23;6;6;
32503;PMS5003;18953;45.930;13.640;2023-04-24T20:30:39;6;6;
32503;PMS5003;18953;45.930;13.640;2023-04-24T20:35:55;15;15;
32503;PMS5003;18953;45.930;13.640;2023-04-24T20:41:12;9;9;
32503;PMS5003;18953;45.930;13.640;2023-04-24T20:46:28;8;8;
32503;PMS5003;18953;45.930;13.640;2023-04-24T20:51:44;12;10;
32503;PMS5003;18953;45.930;13.640;2023-04-24T20:57:01;7;7;
32503;PMS5003;18953;45.930;13.640;2023-04-24T21:02:17;12;9;
32503;PMS5003;18953;45.930;13.640;2023-04-24T21:07:34;12;10;
32503;PMS5003;18953;45.930;13.640;2023-04-24T21:12:50;19;19;
32503;PMS5003;18953;45.930;13.640;2023-04-24T21:18:07;35;28;
32503;PMS5003;18953;45.930;13.640;2023-04-24T21:23:23;31;28;
32503;PMS5003;18953;45.930;13.640;2023-04-24T21:28:40;21;17;
32503;PMS5003;18953;45.930;13.640;2023-04-24T21:33:56;26;23;
32503;PMS5003;18953;45.930;13.640;2023-04-24T21:39:12;23;20;
32503;PMS5003;18953;45.930;13.640;2023-04-24T21:44:29;21;18;
32503;PMS5003;18953;45.930;13.640;2023-04-24T21:49:45;28;24;
32503;PMS5003;18953;45.930;13.640;2023-04-24T21:55:02;19;18;
32503;PMS5003;18953;45.930;13.640;2023-04-24T22:00:18;22;19;
32503;PMS5003;18953;45.930;13.640;2023-04-24T22:05:34;13;12;
32503;PMS5003;18953;45.930;13.640;2023-04-24T22:10:51;17;14;
32503;PMS5003;18953;45.930;13.640;2023-04-24T22:16:07;21;19;
32503;PMS5003;18953;45.930;13.640;2023-04-24T22:21:24;16;14;
32503;PMS5003;18953;45.930;13.640;2023-04-24T22:26:40;10;9;
32503;PMS5003;18953;45.930;13.640;2023-04-24T22:31:56;17;14;
32503;PMS5003;18953;45.930;13.640;2023-04-24T22:37:13;11;11;
32503;PMS5003;18953;45.930;13.640;2023-04-24T22:42:29;12;10;
32503;PMS5003;18953;45.930;13.640;2023-04-24T22:47:45;15;14;
32503;PMS5003;18953;45.930;13.640;2023-04-24T22:53:02;25;23;
32503;PMS5003;18953;45.930;13.640;2023-04-24T22:58:19;15;13;
32503;PMS5003;18953;45.930;13.640;2023-04-24T23:03:35;12;10;
32503;PMS5003;18953;45.930;13.640;2023-04-24T23:08:52;10;10;
32503;PMS5003;18953;45.930;13.640;2023-04-24T23:14:08;16;14;
32503;PMS5003;18953;45.930;13.640;2023-04-24T23:19:24;11;10;
32503;PMS5003;18953;45.930;13.640;2023-04-24T23:24:42;9;7;
32503;PMS5003;18953;45.930;13.640;2023-04-24T23:29:58;13;12;
32503;PMS5003;18953;45.930;13.640;2023-04-24T23:35:14;9;7;
32503;PMS5003;18953;45.930;13.640;2023-04-24T23:40:31;9;9;
32503;PMS5003;18953;45.930;13.640;2023-04-24T23:45:47;10;9;
32503;PMS5003;18953;45.930;13.640;2023-04-24T23:51:04;11;10;
32503;PMS5003;18953;45.930;13.640;2023-04-24T23:56:20;8;8;
